sensor_id;sensor_type;location;lat;lon;timestamp;P1;durP1;ratioP1;P2;durP2;ratioP2
9729;SDS011;4904;49.152;11.004;2023-07-28T00:01:09;4.35;;;3.95;;
9729;SDS011;4904;49.152;11.004;2023-07-28T00:03:36;5.72;;;3.80;;
9729;SDS011;4904;49.152;11.004;2023-07-28T00:06:02;4.20;;;3.47;;
9729;SDS011;4904;49.152;11.004;2023-07-28T00:08:30;3.65;;;3.35;;
9729;SDS011;4904;49.152;11.004;2023-07-28T00:10:56;4.80;;;4.00;;
9729;SDS011;4904;49.152;11.004;2023-07-28T00:13:25;4.28;;;3.88;;
9729;SDS011;4904;49.152;11.004;2023-07-28T00:15:51;4.22;;;3.83;;
9729;SDS011;4904;49.152;11.004;2023-07-28T00:18:18;5.38;;;3.83;;
9729;SDS011;4904;49.152;11.004;2023-07-28T00:20:46;4.78;;;3.90;;
9729;SDS011;4904;49.152;11.004;2023-07-28T00:23:13;4.72;;;4.22;;
9729;SDS011;4904;49.152;11.004;2023-07-28T00:25:41;4.70;;;3.95;;
9729;SDS011;4904;49.152;11.004;2023-07-28T00:28:07;4.88;;;4.25;;
9729;SDS011;4904;49.152;11.004;2023-07-28T00:30:35;4.72;;;4.30;;
9729;SDS011;4904;49.152;11.004;2023-07-28T00:33:03;6.63;;;4.57;;
9729;SDS011;4904;49.152;11.004;2023-07-28T00:35:29;4.75;;;4.28;;
9729;SDS011;4904;49.152;11.004;2023-07-28T00:37:56;6.15;;;4.97;;
9729;SDS011;4904;49.152;11.004;2023-07-28T00:40:23;5.22;;;4.72;;
9729;SDS011;4904;49.152;11.004;2023-07-28T00:42:50;5.07;;;4.57;;
9729;SDS011;4904;49.152;11.004;2023-07-28T00:45:17;5.10;;;4.70;;
9729;SDS011;4904;49.152;11.004;2023-07-28T00:47:45;6.32;;;5.00;;
9729;SDS011;4904;49.152;11.004;2023-07-28T00:50:12;5.57;;;4.90;;
9729;SDS011;4904;49.152;11.004;2023-07-28T00:52:40;5.07;;;4.68;;
9729;SDS011;4904;49.152;11.004;2023-07-28T00:55:07;5.90;;;4.68;;
9729;SDS011;4904;49.152;11.004;2023-07-28T00:57:35;5.00;;;4.50;;
9729;SDS011;4904;49.152;11.004;2023-07-28T01:00:04;5.10;;;4.60;;
9729;SDS011;4904;49.152;11.004;2023-07-28T01:02:32;5.07;;;4.57;;
9729;SDS011;4904;49.152;11.004;2023-07-28T01:05:01;4.95;;;4.55;;
9729;SDS011;4904;49.152;11.004;2023-07-28T01:07:30;6.35;;;4.55;;
9729;SDS011;4904;49.152;11.004;2023-07-28T01:10:05;5.55;;;5.05;;
9729;SDS011;4904;49.152;11.004;2023-07-28T01:12:34;5.20;;;4.80;;
9729;SDS011;4904;49.152;11.004;2023-07-28T01:15:01;6.22;;;5.03;;
9729;SDS011;4904;49.152;11.004;2023-07-28T01:17:28;6.07;;;5.15;;
9729;SDS011;4904;49.152;11.004;2023-07-28T01:19:55;6.60;;;5.30;;
9729;SDS011;4904;49.152;11.004;2023-07-28T01:22:47;4.95;;;4.55;;
9729;SDS011;4904;49.152;11.004;2023-07-28T01:25:28;5.53;;;5.03;;
9729;SDS011;4904;49.152;11.004;2023-07-28T01:28:04;5.25;;;4.75;;
9729;SDS011;4904;49.152;11.004;2023-07-28T01:30:32;6.07;;;4.75;;
9729;SDS011;4904;49.152;11.004;2023-07-28T01:32:59;6.53;;;4.70;;
9729;SDS011;4904;49.152;11.004;2023-07-28T01:35:26;6.30;;;4.82;;
9729;SDS011;4904;49.152;11.004;2023-07-28T01:37:53;5.50;;;4.60;;
9729;SDS011;4904;49.152;11.004;2023-07-28T01:40:20;5.72;;;5.22;;
9729;SDS011;4904;49.152;11.004;2023-07-28T01:42:46;5.32;;;4.82;;
9729;SDS011;4904;49.152;11.004;2023-07-28T01:45:15;5.25;;;4.75;;
9729;SDS011;4904;49.152;11.004;2023-07-28T01:47:42;5.35;;;4.85;;
9729;SDS011;4904;49.152;11.004;2023-07-28T01:50:09;6.00;;;4.55;;
9729;SDS011;4904;49.152;11.004;2023-07-28T01:52:36;5.03;;;4.53;;
9729;SDS011;4904;49.152;11.004;2023-07-28T01:55:03;5.65;;;4.28;;
9729;SDS011;4904;49.152;11.004;2023-07-28T01:57:32;5.18;;;4.68;;
9729;SDS011;4904;49.152;11.004;2023-07-28T02:00:00;5.65;;;4.97;;
9729;SDS011;4904;49.152;11.004;2023-07-28T02:02:31;5.10;;;4.70;;
9729;SDS011;4904;49.152;11.004;2023-07-28T02:04:58;5.40;;;4.68;;
9729;SDS011;4904;49.152;11.004;2023-07-28T02:07:25;4.60;;;4.20;;
9729;SDS011;4904;49.152;11.004;2023-07-28T02:09:53;4.80;;;4.40;;
9729;SDS011;4904;49.152;11.004;2023-07-28T02:12:20;5.20;;;4.70;;
9729;SDS011;4904;49.152;11.004;2023-07-28T02:14:47;4.82;;;4.43;;
9729;SDS011;4904;49.152;11.004;2023-07-28T02:17:14;4.65;;;4.18;;
9729;SDS011;4904;49.152;11.004;2023-07-28T02:19:42;5.55;;;4.47;;
9729;SDS011;4904;49.152;11.004;2023-07-28T02:22:09;4.80;;;4.40;;
9729;SDS011;4904;49.152;11.004;2023-07-28T02:24:37;5.20;;;4.70;;
9729;SDS011;4904;49.152;11.004;2023-07-28T02:27:03;5.50;;;4.22;;
9729;SDS011;4904;49.152;11.004;2023-07-28T02:29:31;5.32;;;4.30;;
9729;SDS011;4904;49.152;11.004;2023-07-28T02:31:58;5.00;;;4.43;;
9729;SDS011;4904;49.152;11.004;2023-07-28T02:34:24;4.45;;;4.07;;
9729;SDS011;4904;49.152;11.004;2023-07-28T02:36:53;4.97;;;4.47;;
9729;SDS011;4904;49.152;11.004;2023-07-28T02:39:19;4.88;;;4.13;;
9729;SDS011;4904;49.152;11.004;2023-07-28T02:41:46;4.60;;;4.28;;
9729;SDS011;4904;49.152;11.004;2023-07-28T02:44:13;4.95;;;4.55;;
9729;SDS011;4904;49.152;11.004;2023-07-28T02:46:40;4.72;;;4.22;;
9729;SDS011;4904;49.152;11.004;2023-07-28T02:49:07;5.18;;;4.78;;
9729;SDS011;4904;49.152;11.004;2023-07-28T02:51:34;5.53;;;4.25;;
9729;SDS011;4904;49.152;11.004;2023-07-28T02:54:02;4.57;;;4.20;;
9729;SDS011;4904;49.152;11.004;2023-07-28T02:56:29;4.90;;;4.47;;
9729;SDS011;4904;49.152;11.004;2023-07-28T02:58:59;4.90;;;4.50;;
9729;SDS011;4904;49.152;11.004;2023-07-28T03:01:27;5.30;;;4.80;;
9729;SDS011;4904;49.152;11.004;2023-07-28T03:03:58;4.88;;;4.30;;
9729;SDS011;4904;49.152;11.004;2023-07-28T03:06:25;5.00;;;4.55;;
9729;SDS011;4904;49.152;11.004;2023-07-28T03:08:52;5.22;;;4.82;;
9729;SDS011;4904;49.152;11.004;2023-07-28T03:11:20;5.68;;;4.75;;
9729;SDS011;4904;49.152;11.004;2023-07-28T03:13:47;5.28;;;4.78;;
9729;SDS011;4904;49.152;11.004;2023-07-28T03:16:14;5.35;;;4.70;;
9729;SDS011;4904;49.152;11.004;2023-07-28T03:18:41;5.40;;;4.30;;
9729;SDS011;4904;49.152;11.004;2023-07-28T03:21:09;5.00;;;4.60;;
9729;SDS011;4904;49.152;11.004;2023-07-28T03:23:35;6.13;;;4.50;;
9729;SDS011;4904;49.152;11.004;2023-07-28T03:26:02;5.45;;;4.70;;
9729;SDS011;4904;49.152;11.004;2023-07-28T03:28:30;5.63;;;4.45;;
9729;SDS011;4904;49.152;11.004;2023-07-28T03:30:57;6.00;;;4.40;;
9729;SDS011;4904;49.152;11.004;2023-07-28T03:33:24;5.07;;;4.65;;
9729;SDS011;4904;49.152;11.004;2023-07-28T03:35:51;4.68;;;4.28;;
9729;SDS011;4904;49.152;11.004;2023-07-28T03:38:18;5.53;;;4.60;;
9729;SDS011;4904;49.152;11.004;2023-07-28T03:40:45;4.65;;;4.20;;
9729;SDS011;4904;49.152;11.004;2023-07-28T03:43:12;5.13;;;4.72;;
9729;SDS011;4904;49.152;11.004;2023-07-28T03:45:40;4.82;;;4.30;;
9729;SDS011;4904;49.152;11.004;2023-07-28T03:48:07;4.90;;;4.40;;
9729;SDS011;4904;49.152;11.004;2023-07-28T03:50:34;5.03;;;4.60;;
9729;SDS011;4904;49.152;11.004;2023-07-28T03:53:01;4.78;;;4.10;;
9729;SDS011;4904;49.152;11.004;2023-07-28T03:55:28;4.90;;;4.40;;
9729;SDS011;4904;49.152;11.004;2023-07-28T03:57:54;4.95;;;4.32;;
9729;SDS011;4904;49.152;11.004;2023-07-28T04:00:22;5.00;;;4.03;;
9729;SDS011;4904;49.152;11.004;2023-07-28T04:02:53;5.28;;;4.55;;
9729;SDS011;4904;49.152;11.004;2023-07-28T04:05:20;4.57;;;4.20;;
9729;SDS011;4904;49.152;11.004;2023-07-28T04:07:48;4.97;;;4.47;;
9729;SDS011;4904;49.152;11.004;2023-07-28T04:10:16;4.60;;;4.18;;
9729;SDS011;4904;49.152;11.004;2023-07-28T04:12:44;6.43;;;4.53;;
9729;SDS011;4904;49.152;11.004;2023-07-28T04:15:11;5.00;;;4.60;;
9729;SDS011;4904;49.152;11.004;2023-07-28T04:17:38;6.90;;;4.30;;
9729;SDS011;4904;49.152;11.004;2023-07-28T04:20:07;4.70;;;4.28;;
9729;SDS011;4904;49.152;11.004;2023-07-28T04:22:35;5.85;;;4.22;;
9729;SDS011;4904;49.152;11.004;2023-07-28T04:25:02;4.82;;;4.30;;
9729;SDS011;4904;49.152;11.004;2023-07-28T04:27:29;5.20;;;4.70;;
9729;SDS011;4904;49.152;11.004;2023-07-28T04:29:56;4.88;;;4.40;;
9729;SDS011;4904;49.152;11.004;2023-07-28T04:32:23;5.63;;;4.70;;
9729;SDS011;4904;49.152;11.004;2023-07-28T04:34:51;5.75;;;4.95;;
9729;SDS011;4904;49.152;11.004;2023-07-28T04:37:20;5.38;;;4.88;;
9729;SDS011;4904;49.152;11.004;2023-07-28T04:39:47;5.05;;;4.60;;
9729;SDS011;4904;49.152;11.004;2023-07-28T04:42:13;4.93;;;4.25;;
9729;SDS011;4904;49.152;11.004;2023-07-28T04:44:40;5.43;;;4.97;;
9729;SDS011;4904;49.152;11.004;2023-07-28T04:47:07;5.53;;;5.00;;
9729;SDS011;4904;49.152;11.004;2023-07-28T04:49:35;5.18;;;4.07;;
9729;SDS011;4904;49.152;11.004;2023-07-28T04:52:02;6.45;;;5.07;;
9729;SDS011;4904;49.152;11.004;2023-07-28T04:54:30;6.07;;;5.50;;
9729;SDS011;4904;49.152;11.004;2023-07-28T04:56:57;5.43;;;5.03;;
9729;SDS011;4904;49.152;11.004;2023-07-28T04:59:24;4.97;;;4.57;;
9729;SDS011;4904;49.152;11.004;2023-07-28T05:01:50;5.20;;;4.55;;
9729;SDS011;4904;49.152;11.004;2023-07-28T05:04:17;5.18;;;4.68;;
9729;SDS011;4904;49.152;11.004;2023-07-28T05:06:45;5.57;;;4.55;;
9729;SDS011;4904;49.152;11.004;2023-07-28T05:09:12;5.93;;;4.80;;
9729;SDS011;4904;49.152;11.004;2023-07-28T05:11:40;5.00;;;4.47;;
9729;SDS011;4904;49.152;11.004;2023-07-28T05:14:07;5.20;;;4.70;;
9729;SDS011;4904;49.152;11.004;2023-07-28T05:16:34;5.20;;;4.72;;
9729;SDS011;4904;49.152;11.004;2023-07-28T05:19:01;4.75;;;4.22;;
9729;SDS011;4904;49.152;11.004;2023-07-28T05:21:29;4.70;;;4.30;;
9729;SDS011;4904;49.152;11.004;2023-07-28T05:23:56;5.80;;;4.93;;
9729;SDS011;4904;49.152;11.004;2023-07-28T05:26:23;6.10;;;4.45;;
9729;SDS011;4904;49.152;11.004;2023-07-28T05:28:51;5.35;;;4.85;;
9729;SDS011;4904;49.152;11.004;2023-07-28T05:31:18;4.38;;;3.95;;
9729;SDS011;4904;49.152;11.004;2023-07-28T05:33:45;5.10;;;4.43;;
9729;SDS011;4904;49.152;11.004;2023-07-28T05:36:12;4.80;;;4.35;;
9729;SDS011;4904;49.152;11.004;2023-07-28T05:38:38;4.95;;;4.40;;
9729;SDS011;4904;49.152;11.004;2023-07-28T05:41:05;5.18;;;4.57;;
9729;SDS011;4904;49.152;11.004;2023-07-28T05:43:33;5.22;;;4.82;;
9729;SDS011;4904;49.152;11.004;2023-07-28T05:46:01;4.80;;;4.30;;
9729;SDS011;4904;49.152;11.004;2023-07-28T05:48:28;5.65;;;4.63;;
9729;SDS011;4904;49.152;11.004;2023-07-28T05:50:55;6.22;;;5.45;;
9729;SDS011;4904;49.152;11.004;2023-07-28T05:53:22;5.18;;;4.53;;
9729;SDS011;4904;49.152;11.004;2023-07-28T05:55:49;5.72;;;5.10;;
9729;SDS011;4904;49.152;11.004;2023-07-28T05:58:16;6.95;;;4.97;;
9729;SDS011;4904;49.152;11.004;2023-07-28T06:00:44;5.88;;;4.80;;
9729;SDS011;4904;49.152;11.004;2023-07-28T06:03:12;5.20;;;4.70;;
9729;SDS011;4904;49.152;11.004;2023-07-28T06:05:39;6.47;;;4.85;;
9729;SDS011;4904;49.152;11.004;2023-07-28T06:08:07;7.55;;;5.20;;
9729;SDS011;4904;49.152;11.004;2023-07-28T06:10:34;6.28;;;5.00;;
9729;SDS011;4904;49.152;11.004;2023-07-28T06:13:01;6.78;;;5.07;;
9729;SDS011;4904;49.152;11.004;2023-07-28T06:15:28;6.97;;;5.63;;
9729;SDS011;4904;49.152;11.004;2023-07-28T06:17:54;6.40;;;5.80;;
9729;SDS011;4904;49.152;11.004;2023-07-28T06:20:23;5.90;;;5.30;;
9729;SDS011;4904;49.152;11.004;2023-07-28T06:22:50;6.00;;;5.40;;
9729;SDS011;4904;49.152;11.004;2023-07-28T06:25:17;6.13;;;5.63;;
9729;SDS011;4904;49.152;11.004;2023-07-28T06:27:44;6.78;;;5.40;;
9729;SDS011;4904;49.152;11.004;2023-07-28T06:30:11;5.80;;;5.30;;
9729;SDS011;4904;49.152;11.004;2023-07-28T06:32:38;6.30;;;5.70;;
9729;SDS011;4904;49.152;11.004;2023-07-28T06:35:05;6.57;;;5.50;;
9729;SDS011;4904;49.152;11.004;2023-07-28T06:37:36;9.77;;;5.45;;
9729;SDS011;4904;49.152;11.004;2023-07-28T06:40:03;5.95;;;5.45;;
9729;SDS011;4904;49.152;11.004;2023-07-28T06:42:32;7.47;;;6.50;;
9729;SDS011;4904;49.152;11.004;2023-07-28T06:44:59;6.05;;;5.53;;
9729;SDS011;4904;49.152;11.004;2023-07-28T06:47:27;7.03;;;6.40;;
9729;SDS011;4904;49.152;11.004;2023-07-28T06:49:54;6.88;;;6.18;;
9729;SDS011;4904;49.152;11.004;2023-07-28T06:52:21;6.25;;;5.72;;
9729;SDS011;4904;49.152;11.004;2023-07-28T06:54:50;6.32;;;5.60;;
9729;SDS011;4904;49.152;11.004;2023-07-28T06:57:19;7.28;;;5.95;;
9729;SDS011;4904;49.152;11.004;2023-07-28T06:59:46;8.07;;;5.93;;
9729;SDS011;4904;49.152;11.004;2023-07-28T07:02:13;6.20;;;5.70;;
9729;SDS011;4904;49.152;11.004;2023-07-28T07:04:40;5.82;;;5.20;;
9729;SDS011;4904;49.152;11.004;2023-07-28T07:07:07;6.85;;;5.70;;
9729;SDS011;4904;49.152;11.004;2023-07-28T07:09:35;7.70;;;5.63;;
9729;SDS011;4904;49.152;11.004;2023-07-28T07:12:04;7.28;;;6.25;;
9729;SDS011;4904;49.152;11.004;2023-07-28T07:14:32;8.38;;;5.85;;
9729;SDS011;4904;49.152;11.004;2023-07-28T07:16:59;7.07;;;6.05;;
9729;SDS011;4904;49.152;11.004;2023-07-28T07:19:27;7.20;;;6.15;;
9729;SDS011;4904;49.152;11.004;2023-07-28T07:21:54;6.90;;;6.18;;
9729;SDS011;4904;49.152;11.004;2023-07-28T07:24:21;8.60;;;6.40;;
9729;SDS011;4904;49.152;11.004;2023-07-28T07:26:48;6.75;;;5.78;;
9729;SDS011;4904;49.152;11.004;2023-07-28T07:29:17;8.38;;;5.53;;
9729;SDS011;4904;49.152;11.004;2023-07-28T07:31:44;5.93;;;5.43;;
9729;SDS011;4904;49.152;11.004;2023-07-28T07:34:12;5.72;;;5.22;;
9729;SDS011;4904;49.152;11.004;2023-07-28T07:36:39;7.00;;;5.82;;
9729;SDS011;4904;49.152;11.004;2023-07-28T07:39:06;7.88;;;5.80;;
9729;SDS011;4904;49.152;11.004;2023-07-28T07:41:33;6.97;;;6.00;;
9729;SDS011;4904;49.152;11.004;2023-07-28T07:44:00;6.90;;;6.20;;
9729;SDS011;4904;49.152;11.004;2023-07-28T07:46:29;6.03;;;5.43;;
9729;SDS011;4904;49.152;11.004;2023-07-28T07:48:56;6.13;;;5.53;;
9729;SDS011;4904;49.152;11.004;2023-07-28T07:51:23;6.40;;;5.80;;
9729;SDS011;4904;49.152;11.004;2023-07-28T07:53:50;7.47;;;6.47;;
9729;SDS011;4904;49.152;11.004;2023-07-28T07:56:17;6.50;;;5.90;;
9729;SDS011;4904;49.152;11.004;2023-07-28T07:58:44;6.63;;;6.05;;
9729;SDS011;4904;49.152;11.004;2023-07-28T08:01:11;7.32;;;6.00;;
9729;SDS011;4904;49.152;11.004;2023-07-28T08:03:40;6.25;;;5.55;;
9729;SDS011;4904;49.152;11.004;2023-07-28T08:06:07;6.43;;;5.82;;
9729;SDS011;4904;49.152;11.004;2023-07-28T08:08:36;6.05;;;5.55;;
9729;SDS011;4904;49.152;11.004;2023-07-28T08:11:03;6.40;;;5.70;;
9729;SDS011;4904;49.152;11.004;2023-07-28T08:13:30;6.82;;;6.10;;
9729;SDS011;4904;49.152;11.004;2023-07-28T08:15:57;8.82;;;5.97;;
9729;SDS011;4904;49.152;11.004;2023-07-28T08:18:24;6.50;;;5.75;;
9729;SDS011;4904;49.152;11.004;2023-07-28T08:20:53;6.10;;;5.57;;
9729;SDS011;4904;49.152;11.004;2023-07-28T08:23:20;7.18;;;6.47;;
9729;SDS011;4904;49.152;11.004;2023-07-28T08:25:46;6.38;;;5.88;;
9729;SDS011;4904;49.152;11.004;2023-07-28T08:28:13;6.40;;;5.90;;
9729;SDS011;4904;49.152;11.004;2023-07-28T08:30:40;6.68;;;5.50;;
9729;SDS011;4904;49.152;11.004;2023-07-28T08:33:07;6.38;;;5.85;;
9729;SDS011;4904;49.152;11.004;2023-07-28T08:35:34;6.32;;;5.57;;
9729;SDS011;4904;49.152;11.004;2023-07-28T08:38:02;6.78;;;5.88;;
9729;SDS011;4904;49.152;11.004;2023-07-28T08:40:29;6.53;;;5.93;;
9729;SDS011;4904;49.152;11.004;2023-07-28T08:42:56;7.18;;;6.47;;
9729;SDS011;4904;49.152;11.004;2023-07-28T08:45:23;6.43;;;5.90;;
9729;SDS011;4904;49.152;11.004;2023-07-28T08:47:50;6.82;;;6.15;;
9729;SDS011;4904;49.152;11.004;2023-07-28T08:50:17;6.90;;;6.30;;
9729;SDS011;4904;49.152;11.004;2023-07-28T08:52:45;7.57;;;6.82;;
9729;SDS011;4904;49.152;11.004;2023-07-28T08:55:13;6.93;;;6.43;;
9729;SDS011;4904;49.152;11.004;2023-07-28T08:57:40;7.38;;;6.78;;
9729;SDS011;4904;49.152;11.004;2023-07-28T09:00:08;11.02;;;7.22;;
9729;SDS011;4904;49.152;11.004;2023-07-28T09:02:39;8.68;;;7.88;;
9729;SDS011;4904;49.152;11.004;2023-07-28T09:05:07;8.00;;;7.30;;
9729;SDS011;4904;49.152;11.004;2023-07-28T09:07:46;6.72;;;6.15;;
9729;SDS011;4904;49.152;11.004;2023-07-28T09:10:16;5.60;;;5.20;;
9729;SDS011;4904;49.152;11.004;2023-07-28T09:12:45;6.03;;;5.43;;
9729;SDS011;4904;49.152;11.004;2023-07-28T09:15:13;6.45;;;5.85;;
9729;SDS011;4904;49.152;11.004;2023-07-28T09:17:41;7.57;;;6.88;;
9729;SDS011;4904;49.152;11.004;2023-07-28T09:20:12;7.40;;;6.85;;
9729;SDS011;4904;49.152;11.004;2023-07-28T09:22:40;7.07;;;6.47;;
9729;SDS011;4904;49.152;11.004;2023-07-28T09:25:11;6.47;;;5.97;;
9729;SDS011;4904;49.152;11.004;2023-07-28T09:27:41;7.10;;;6.50;;
9729;SDS011;4904;49.152;11.004;2023-07-28T09:30:16;6.38;;;5.88;;
9729;SDS011;4904;49.152;11.004;2023-07-28T09:32:46;7.00;;;6.40;;
9729;SDS011;4904;49.152;11.004;2023-07-28T09:35:14;6.00;;;5.40;;
9729;SDS011;4904;49.152;11.004;2023-07-28T09:37:42;5.20;;;4.75;;
9729;SDS011;4904;49.152;11.004;2023-07-28T09:40:11;5.35;;;4.85;;
9729;SDS011;4904;49.152;11.004;2023-07-28T09:42:42;5.25;;;4.63;;
9729;SDS011;4904;49.152;11.004;2023-07-28T09:45:14;5.30;;;4.80;;
9729;SDS011;4904;49.152;11.004;2023-07-28T09:47:43;4.60;;;4.20;;
9729;SDS011;4904;49.152;11.004;2023-07-28T09:50:11;8.95;;;4.22;;
9729;SDS011;4904;49.152;11.004;2023-07-28T09:52:42;4.88;;;4.47;;
9729;SDS011;4904;49.152;11.004;2023-07-28T09:55:10;4.10;;;3.80;;
9729;SDS011;4904;49.152;11.004;2023-07-28T09:57:39;4.20;;;3.83;;
9729;SDS011;4904;49.152;11.004;2023-07-28T10:00:11;4.13;;;3.72;;
9729;SDS011;4904;49.152;11.004;2023-07-28T10:02:40;4.22;;;3.80;;
9729;SDS011;4904;49.152;11.004;2023-07-28T10:05:07;3.97;;;3.45;;
9729;SDS011;4904;49.152;11.004;2023-07-28T10:07:35;3.53;;;3.22;;
9729;SDS011;4904;49.152;11.004;2023-07-28T10:10:05;4.70;;;3.13;;
9729;SDS011;4904;49.152;11.004;2023-07-28T10:12:39;3.15;;;2.95;;
9729;SDS011;4904;49.152;11.004;2023-07-28T10:15:11;2.90;;;2.70;;
9729;SDS011;4904;49.152;11.004;2023-07-28T10:17:41;4.35;;;2.90;;
9729;SDS011;4904;49.152;11.004;2023-07-28T10:23:06;2.53;;;2.33;;
9729;SDS011;4904;49.152;11.004;2023-07-28T10:25:37;2.58;;;2.38;;
9729;SDS011;4904;49.152;11.004;2023-07-28T10:28:06;3.00;;;2.70;;
9729;SDS011;4904;49.152;11.004;2023-07-28T10:30:36;3.65;;;2.60;;
9729;SDS011;4904;49.152;11.004;2023-07-28T10:33:05;2.80;;;2.60;;
9729;SDS011;4904;49.152;11.004;2023-07-28T10:35:32;2.85;;;2.47;;
9729;SDS011;4904;49.152;11.004;2023-07-28T10:41:04;2.75;;;2.05;;
9729;SDS011;4904;49.152;11.004;2023-07-28T10:43:35;1.88;;;1.77;;
9729;SDS011;4904;49.152;11.004;2023-07-28T10:46:05;2.75;;;1.88;;
9729;SDS011;4904;49.152;11.004;2023-07-28T10:48:34;2.28;;;1.77;;
9729;SDS011;4904;49.152;11.004;2023-07-28T10:51:02;1.67;;;1.42;;
9729;SDS011;4904;49.152;11.004;2023-07-28T10:53:30;1.75;;;1.65;;
9729;SDS011;4904;49.152;11.004;2023-07-28T10:55:58;3.28;;;1.40;;
9729;SDS011;4904;49.152;11.004;2023-07-28T10:58:27;1.55;;;1.45;;
9729;SDS011;4904;49.152;11.004;2023-07-28T11:00:54;1.92;;;1.45;;
9729;SDS011;4904;49.152;11.004;2023-07-28T11:03:23;2.15;;;1.50;;
9729;SDS011;4904;49.152;11.004;2023-07-28T11:05:50;1.60;;;1.50;;
9729;SDS011;4904;49.152;11.004;2023-07-28T11:08:21;2.97;;;1.50;;
9729;SDS011;4904;49.152;11.004;2023-07-28T11:10:49;2.00;;;1.33;;
9729;SDS011;4904;49.152;11.004;2023-07-28T11:13:16;2.08;;;1.77;;
9729;SDS011;4904;49.152;11.004;2023-07-28T11:15:43;2.38;;;1.38;;
9729;SDS011;4904;49.152;11.004;2023-07-28T11:18:10;1.55;;;1.45;;
9729;SDS011;4904;49.152;11.004;2023-07-28T11:20:42;3.75;;;1.80;;
9729;SDS011;4904;49.152;11.004;2023-07-28T11:23:13;2.80;;;1.40;;
9729;SDS011;4904;49.152;11.004;2023-07-28T11:25:41;1.50;;;1.40;;
9729;SDS011;4904;49.152;11.004;2023-07-28T11:28:10;1.20;;;1.20;;
9729;SDS011;4904;49.152;11.004;2023-07-28T11:30:37;1.20;;;1.20;;
9729;SDS011;4904;49.152;11.004;2023-07-28T11:33:08;1.30;;;1.20;;
9729;SDS011;4904;49.152;11.004;2023-07-28T11:35:37;1.48;;;1.38;;
9729;SDS011;4904;49.152;11.004;2023-07-28T11:38:06;1.50;;;1.40;;
9729;SDS011;4904;49.152;11.004;2023-07-28T11:40:34;1.38;;;1.27;;
9729;SDS011;4904;49.152;11.004;2023-07-28T11:43:02;1.52;;;1.38;;
9729;SDS011;4904;49.152;11.004;2023-07-28T11:45:30;2.13;;;1.60;;
9729;SDS011;4904;49.152;11.004;2023-07-28T11:47:58;2.55;;;1.30;;
9729;SDS011;4904;49.152;11.004;2023-07-28T11:50:27;1.50;;;1.40;;
9729;SDS011;4904;49.152;11.004;2023-07-28T11:52:55;1.58;;;1.38;;
9729;SDS011;4904;49.152;11.004;2023-07-28T11:55:24;1.63;;;1.45;;
9729;SDS011;4904;49.152;11.004;2023-07-28T11:57:52;1.85;;;1.63;;
9729;SDS011;4904;49.152;11.004;2023-07-28T12:00:24;1.40;;;1.30;;
9729;SDS011;4904;49.152;11.004;2023-07-28T12:03:02;1.40;;;1.30;;
9729;SDS011;4904;49.152;11.004;2023-07-28T12:05:30;2.20;;;1.60;;
9729;SDS011;4904;49.152;11.004;2023-07-28T12:08:00;1.30;;;1.20;;
9729;SDS011;4904;49.152;11.004;2023-07-28T12:10:30;2.38;;;1.45;;
9729;SDS011;4904;49.152;11.004;2023-07-28T12:12:57;2.00;;;1.45;;
9729;SDS011;4904;49.152;11.004;2023-07-28T12:15:30;1.85;;;1.70;;
9729;SDS011;4904;49.152;11.004;2023-07-28T12:18:03;2.60;;;1.83;;
9729;SDS011;4904;49.152;11.004;2023-07-28T12:20:35;2.00;;;1.90;;
9729;SDS011;4904;49.152;11.004;2023-07-28T12:23:04;3.58;;;1.60;;
9729;SDS011;4904;49.152;11.004;2023-07-28T12:25:33;3.47;;;1.70;;
9729;SDS011;4904;49.152;11.004;2023-07-28T12:28:01;1.60;;;1.50;;
9729;SDS011;4904;49.152;11.004;2023-07-28T12:30:29;1.60;;;1.50;;
9729;SDS011;4904;49.152;11.004;2023-07-28T12:32:57;1.60;;;1.50;;
9729;SDS011;4904;49.152;11.004;2023-07-28T12:35:25;2.08;;;1.65;;
9729;SDS011;4904;49.152;11.004;2023-07-28T12:37:56;1.90;;;1.80;;
9729;SDS011;4904;49.152;11.004;2023-07-28T12:40:25;1.60;;;1.50;;
9729;SDS011;4904;49.152;11.004;2023-07-28T12:42:54;1.38;;;1.30;;
9729;SDS011;4904;49.152;11.004;2023-07-28T12:45:21;1.58;;;1.48;;
9729;SDS011;4904;49.152;11.004;2023-07-28T12:47:50;1.63;;;1.45;;
9729;SDS011;4904;49.152;11.004;2023-07-28T12:50:18;1.33;;;1.20;;
9729;SDS011;4904;49.152;11.004;2023-07-28T12:52:45;1.70;;;1.55;;
9729;SDS011;4904;49.152;11.004;2023-07-28T12:55:12;2.13;;;1.90;;
9729;SDS011;4904;49.152;11.004;2023-07-28T12:57:40;1.55;;;1.40;;
9729;SDS011;4904;49.152;11.004;2023-07-28T13:00:09;1.40;;;1.30;;
9729;SDS011;4904;49.152;11.004;2023-07-28T13:02:39;3.30;;;1.30;;
9729;SDS011;4904;49.152;11.004;2023-07-28T13:05:07;1.42;;;1.33;;
9729;SDS011;4904;49.152;11.004;2023-07-28T13:07:35;2.00;;;1.50;;
9729;SDS011;4904;49.152;11.004;2023-07-28T13:10:02;1.40;;;1.30;;
9729;SDS011;4904;49.152;11.004;2023-07-28T13:12:30;1.38;;;1.27;;
9729;SDS011;4904;49.152;11.004;2023-07-28T13:14:58;2.65;;;1.50;;
9729;SDS011;4904;49.152;11.004;2023-07-28T13:17:26;1.30;;;1.20;;
9729;SDS011;4904;49.152;11.004;2023-07-28T13:19:54;1.30;;;1.20;;
9729;SDS011;4904;49.152;11.004;2023-07-28T13:22:22;2.15;;;1.50;;
9729;SDS011;4904;49.152;11.004;2023-07-28T13:24:49;1.30;;;1.30;;
9729;SDS011;4904;49.152;11.004;2023-07-28T13:27:16;1.92;;;1.30;;
9729;SDS011;4904;49.152;11.004;2023-07-28T13:29:43;1.58;;;1.33;;
9729;SDS011;4904;49.152;11.004;2023-07-28T13:32:17;1.25;;;1.23;;
9729;SDS011;4904;49.152;11.004;2023-07-28T13:34:46;1.30;;;1.20;;
9729;SDS011;4904;49.152;11.004;2023-07-28T13:37:13;4.43;;;1.50;;
9729;SDS011;4904;49.152;11.004;2023-07-28T13:39:41;1.73;;;1.48;;
9729;SDS011;4904;49.152;11.004;2023-07-28T13:42:08;1.77;;;1.30;;
9729;SDS011;4904;49.152;11.004;2023-07-28T13:44:37;1.60;;;1.50;;
9729;SDS011;4904;49.152;11.004;2023-07-28T13:47:04;1.75;;;1.60;;
9729;SDS011;4904;49.152;11.004;2023-07-28T13:49:31;1.20;;;1.20;;
9729;SDS011;4904;49.152;11.004;2023-07-28T13:52:04;1.60;;;1.40;;
9729;SDS011;4904;49.152;11.004;2023-07-28T13:54:31;1.70;;;1.40;;
9729;SDS011;4904;49.152;11.004;2023-07-28T13:56:59;1.42;;;1.33;;
9729;SDS011;4904;49.152;11.004;2023-07-28T13:59:26;1.60;;;1.50;;
9729;SDS011;4904;49.152;11.004;2023-07-28T14:01:53;2.08;;;1.20;;
9729;SDS011;4904;49.152;11.004;2023-07-28T14:04:22;1.40;;;1.30;;
9729;SDS011;4904;49.152;11.004;2023-07-28T14:06:50;1.45;;;1.35;;
9729;SDS011;4904;49.152;11.004;2023-07-28T14:09:18;3.22;;;1.48;;
9729;SDS011;4904;49.152;11.004;2023-07-28T14:11:45;1.67;;;1.58;;
9729;SDS011;4904;49.152;11.004;2023-07-28T14:14:12;1.60;;;1.50;;
9729;SDS011;4904;49.152;11.004;2023-07-28T14:16:39;2.13;;;1.30;;
9729;SDS011;4904;49.152;11.004;2023-07-28T14:19:07;1.48;;;1.38;;
9729;SDS011;4904;49.152;11.004;2023-07-28T14:21:34;6.00;;;1.58;;
9729;SDS011;4904;49.152;11.004;2023-07-28T14:24:03;1.30;;;1.20;;
9729;SDS011;4904;49.152;11.004;2023-07-28T14:26:32;1.40;;;1.33;;
9729;SDS011;4904;49.152;11.004;2023-07-28T14:28:59;1.50;;;1.40;;
9729;SDS011;4904;49.152;11.004;2023-07-28T14:31:26;1.17;;;1.17;;
9729;SDS011;4904;49.152;11.004;2023-07-28T14:33:53;3.00;;;1.55;;
9729;SDS011;4904;49.152;11.004;2023-07-28T14:36:20;1.65;;;1.55;;
9729;SDS011;4904;49.152;11.004;2023-07-28T14:38:47;4.75;;;1.63;;
9729;SDS011;4904;49.152;11.004;2023-07-28T14:41:14;1.63;;;1.40;;
9729;SDS011;4904;49.152;11.004;2023-07-28T14:43:43;1.50;;;1.40;;
9729;SDS011;4904;49.152;11.004;2023-07-28T14:46:10;1.42;;;1.40;;
9729;SDS011;4904;49.152;11.004;2023-07-28T14:48:37;1.45;;;1.38;;
9729;SDS011;4904;49.152;11.004;2023-07-28T14:51:04;1.50;;;1.40;;
9729;SDS011;4904;49.152;11.004;2023-07-28T14:53:32;2.15;;;1.10;;
9729;SDS011;4904;49.152;11.004;2023-07-28T14:56:01;1.17;;;1.10;;
9729;SDS011;4904;49.152;11.004;2023-07-28T14:58:29;1.50;;;1.40;;
9729;SDS011;4904;49.152;11.004;2023-07-28T15:00:58;1.48;;;1.25;;
9729;SDS011;4904;49.152;11.004;2023-07-28T15:03:27;1.55;;;1.42;;
9729;SDS011;4904;49.152;11.004;2023-07-28T15:05:55;1.45;;;1.30;;
9729;SDS011;4904;49.152;11.004;2023-07-28T15:08:23;4.22;;;1.30;;
9729;SDS011;4904;49.152;11.004;2023-07-28T15:10:50;1.88;;;1.30;;